Time;durP1;ratioP1;P1;durP2;ratioP2;P2;SDS_P1;SDS_P2;PMS_P1;PMS_P2;Temp;Humidity;BMP_temperature;BMP_pressure;BME280_temperature;BME280_humidity;BME280_pressure;Samples;Min_cycle;Max_cycle;Signal;HPM_P1;HPM_P2
2023/04/04 00:01:24;;;;;;;11.70;5.20;;;;;;;-128.00;-1.00;-1.00;97861;295;1003870;-35
2023/04/04 00:03:50;;;;;;;5.80;2.70;;;;;;;-128.00;-1.00;-1.00;97796;284;1003206;-30
2023/04/04 00:06:18;;;;;;;14.10;3.30;;;;;;;-128.00;-1.00;-1.00;97885;295;1003274;-30
2023/04/04 00:08:43;;;;;;;7.40;4.20;;;;;;;-128.00;-1.00;-1.00;97892;295;1003167;-30
2023/04/04 00:11:09;;;;;;;11.30;4.00;;;;;;;-128.00;-1.00;-1.00;97968;295;1004400;-30
2023/04/04 00:13:35;;;;;;;6.80;2.10;;;;;;;-128.00;-1.00;-1.00;97950;295;1003071;-34
2023/04/04 00:16:01;;;;;;;10.00;3.30;;;;;;;-128.00;-1.00;-1.00;97941;295;1003504;-33
2023/04/04 00:18:26;;;;;;;13.70;4.30;;;;;;;-128.00;-1.00;-1.00;98080;295;1003726;-33
2023/04/04 00:20:52;;;;;;;6.30;3.00;;;;;;;-128.00;-1.00;-1.00;97872;295;1003201;-34
2023/04/04 00:23:18;;;;;;;15.50;4.20;;;;;;;-128.00;-1.00;-1.00;97874;295;1004319;-34
2023/04/04 00:25:52;;;;;;;15.90;4.60;;;;;;;-128.00;-1.00;-1.00;97813;295;1003948;-32
2023/04/04 00:28:19;;;;;;;7.90;3.90;;;;;;;-128.00;-1.00;-1.00;98042;295;1002892;-32
2023/04/04 00:30:45;;;;;;;7.30;3.40;;;;;;;-128.00;-1.00;-1.00;97888;295;1004796;-32
2023/04/04 00:33:12;;;;;;;6.70;3.20;;;;;;;-128.00;-1.00;-1.00;97867;295;1003221;-32
2023/04/04 00:35:37;;;;;;;10.80;3.60;;;;;;;-128.00;-1.00;-1.00;98083;295;1004350;-35
2023/04/04 00:38:03;;;;;;;6.40;3.60;;;;;;;-128.00;-1.00;-1.00;92759;295;3002858;-33
2023/04/04 00:40:28;;;;;;;10.30;4.10;;;;;;;-128.00;-1.00;-1.00;97741;295;1003685;-33
2023/04/04 00:42:58;;;;;;;10.00;4.50;;;;;;;-128.00;-1.00;-1.00;39609;295;7504045;-34
2023/04/04 00:45:24;;;;;;;12.40;6.10;;;;;;;-128.00;-1.00;-1.00;18593;295;7504059;-34
2023/04/04 00:47:50;;;;;;;12.40;3.80;;;;;;;-128.00;-1.00;-1.00;18911;318;7504680;-33
2023/04/04 00:50:16;;;;;;;5.80;3.50;;;;;;;-128.00;-1.00;-1.00;18893;287;7505218;-29
2023/04/04 00:52:42;;;;;;;15.40;4.50;;;;;;;-128.00;-1.00;-1.00;18895;295;7504473;-33
2023/04/04 00:55:08;;;;;;;9.50;3.60;;;;;;;-128.00;-1.00;-1.00;18869;288;7504983;-30
2023/04/04 00:57:35;;;;;;;12.20;3.60;;;;;;;-128.00;-1.00;-1.00;18886;319;7504699;-34
2023/04/04 01:00:03;;;;;;;9.60;5.20;;;;;;;-128.00;-1.00;-1.00;18882;296;7504317;-34
2023/04/04 01:02:29;;;;;;;15.10;3.30;;;;;;;-128.00;-1.00;-1.00;18487;294;7504241;-34
2023/04/04 01:04:55;;;;;;;10.50;4.60;;;;;;;-128.00;-1.00;-1.00;18911;294;7505479;-33
2023/04/04 01:07:21;;;;;;;13.40;4.60;;;;;;;-128.00;-1.00;-1.00;18870;295;7507341;-33
2023/04/04 01:09:47;;;;;;;12.20;4.20;;;;;;;-128.00;-1.00;-1.00;18895;295;7504339;-33
2023/04/04 01:12:14;;;;;;;14.30;4.00;;;;;;;-128.00;-1.00;-1.00;18860;295;7504816;-29
2023/04/04 01:14:40;;;;;;;9.50;4.20;;;;;;;-128.00;-1.00;-1.00;18887;295;7505190;-33
2023/04/04 01:17:07;;;;;;;12.30;4.20;;;;;;;-128.00;-1.00;-1.00;18894;347;7505386;-29
2023/04/04 01:19:42;;;;;;;12.20;5.60;;;;;;;-128.00;-1.00;-1.00;18900;295;7505039;-29
2023/04/04 01:22:08;;;;;;;9.10;4.60;;;;;;;-128.00;-1.00;-1.00;18454;306;7504781;-33
2023/04/04 01:24:34;;;;;;;7.90;4.40;;;;;;;-128.00;-1.00;-1.00;18893;296;7504658;-34
2023/04/04 01:27:00;;;;;;;10.20;4.60;;;;;;;-128.00;-1.00;-1.00;18906;294;7505439;-33
2023/04/04 01:29:27;;;;;;;12.20;5.70;;;;;;;-128.00;-1.00;-1.00;18862;288;7504580;-34
2023/04/04 01:31:56;;;;;;;13.10;5.00;;;;;;;-128.00;-1.00;-1.00;18895;295;7504328;-32
2023/04/04 01:34:36;;;;;;;7.10;3.40;;;;;;;-128.00;-1.00;-1.00;18505;339;7506814;-33
2023/04/04 01:37:18;;;;;;;9.50;4.90;;;;;;;-128.00;-1.00;-1.00;18470;294;7506510;-33
2023/04/04 01:39:59;;;;;;;10.20;3.90;;;;;;;-128.00;-1.00;-1.00;18462;294;7504717;-33
2023/04/04 01:42:25;;;;;;;9.50;4.50;;;;;;;-128.00;-1.00;-1.00;18478;295;7506037;-34
2023/04/04 01:44:55;;;;;;;12.40;5.00;;;;;;;-128.00;-1.00;-1.00;18483;295;7504511;-31
2023/04/04 01:47:20;;;;;;;15.40;5.00;;;;;;;-128.00;-1.00;-1.00;18496;320;7504763;-30
2023/04/04 01:49:49;;;;;;;14.70;4.50;;;;;;;-128.00;-1.00;-1.00;18484;288;7504657;-30
2023/04/04 01:52:14;;;;;;;8.10;3.90;;;;;;;-128.00;-1.00;-1.00;18486;318;7505018;-33
2023/04/04 01:54:40;;;;;;;13.60;4.30;;;;;;;-128.00;-1.00;-1.00;18463;294;7504726;-35
2023/04/04 01:57:06;;;;;;;17.70;5.00;;;;;;;-128.00;-1.00;-1.00;18490;294;7504620;-29
2023/04/04 01:59:32;;;;;;;11.60;4.80;;;;;;;-128.00;-1.00;-1.00;18871;294;7504667;-33
2023/04/04 02:01:58;;;;;;;16.00;6.10;;;;;;;-128.00;-1.00;-1.00;18860;295;7504956;-30
2023/04/04 02:04:24;;;;;;;9.70;5.20;;;;;;;-128.00;-1.00;-1.00;18885;339;7506031;-29
2023/04/04 02:06:51;;;;;;;15.40;6.20;;;;;;;-128.00;-1.00;-1.00;18877;294;7504610;-32
2023/04/04 02:09:17;;;;;;;17.70;5.90;;;;;;;-128.00;-1.00;-1.00;18472;296;7504468;-33
2023/04/04 02:11:43;;;;;;;15.70;5.30;;;;;;;-128.00;-1.00;-1.00;18459;295;7504641;-33
2023/04/04 02:14:08;;;;;;;8.10;4.80;;;;;;;-128.00;-1.00;-1.00;18445;318;7506151;-29
2023/04/04 02:16:34;;;;;;;10.30;4.70;;;;;;;-128.00;-1.00;-1.00;18869;295;7504809;-29
2023/04/04 02:19:01;;;;;;;17.00;6.90;;;;;;;-128.00;-1.00;-1.00;18876;294;7505346;-29
2023/04/04 02:21:27;;;;;;;18.40;6.20;;;;;;;-128.00;-1.00;-1.00;18891;295;7505112;-29
2023/04/04 02:23:53;;;;;;;15.20;5.60;;;;;;;-128.00;-1.00;-1.00;18865;295;7504503;-29
2023/04/04 02:26:20;;;;;;;11.90;5.70;;;;;;;-128.00;-1.00;-1.00;18858;294;7504998;-33
2023/04/04 02:28:46;;;;;;;17.80;5.30;;;;;;;-128.00;-1.00;-1.00;18497;295;7504493;-32
2023/04/04 02:31:11;;;;;;;12.40;4.60;;;;;;;-128.00;-1.00;-1.00;18488;288;7505782;-32
2023/04/04 02:33:38;;;;;;;25.20;6.40;;;;;;;-128.00;-1.00;-1.00;18860;349;7505124;-31
2023/04/04 02:36:04;;;;;;;17.10;6.50;;;;;;;-128.00;-1.00;-1.00;18897;298;7506078;-29
2023/04/04 02:38:30;;;;;;;11.90;5.40;;;;;;;-128.00;-1.00;-1.00;18474;346;7505952;-29
2023/04/04 02:40:56;;;;;;;20.10;5.80;;;;;;;-128.00;-1.00;-1.00;18483;295;7504626;-29
2023/04/04 02:43:22;;;;;;;9.90;4.00;;;;;;;-128.00;-1.00;-1.00;18900;294;7504929;-29
2023/04/04 02:45:48;;;;;;;17.50;5.90;;;;;;;-128.00;-1.00;-1.00;18865;288;7504596;-28
2023/04/04 02:48:15;;;;;;;7.70;4.20;;;;;;;-128.00;-1.00;-1.00;18482;294;7506681;-29
2023/04/04 02:50:40;;;;;;;15.70;5.70;;;;;;;-128.00;-1.00;-1.00;18485;295;7505995;-30
2023/04/04 02:53:06;;;;;;;12.40;4.00;;;;;;;-128.00;-1.00;-1.00;18488;294;7504926;-34
2023/04/04 02:55:32;;;;;;;12.90;6.10;;;;;;;-128.00;-1.00;-1.00;18466;335;7504571;-34
2023/04/04 02:58:00;;;;;;;20.00;5.30;;;;;;;-128.00;-1.00;-1.00;18496;295;7506468;-31
2023/04/04 03:00:26;;;;;;;19.00;5.80;;;;;;;-128.00;-1.00;-1.00;18475;295;7504376;-29
2023/04/04 03:02:55;;;;;;;14.10;6.00;;;;;;;-128.00;-1.00;-1.00;18471;347;7505991;-30
2023/04/04 03:05:23;;;;;;;10.80;5.00;;;;;;;-128.00;-1.00;-1.00;18458;288;7504391;-34
2023/04/04 03:07:56;;;;;;;23.80;5.40;;;;;;;-128.00;-1.00;-1.00;18457;295;7506517;-33
2023/04/04 03:10:22;;;;;;;9.80;5.50;;;;;;;-128.00;-1.00;-1.00;18473;288;7506694;-34
2023/04/04 03:12:48;;;;;;;8.90;4.80;;;;;;;-128.00;-1.00;-1.00;18473;347;7504452;-29
2023/04/04 03:15:14;;;;;;;21.00;5.40;;;;;;;-128.00;-1.00;-1.00;18458;298;7504450;-30
2023/04/04 03:17:40;;;;;;;11.30;5.20;;;;;;;-128.00;-1.00;-1.00;18503;288;7504923;-29
2023/04/04 03:20:06;;;;;;;15.70;4.60;;;;;;;-128.00;-1.00;-1.00;18512;295;7505966;-30
2023/04/04 03:22:32;;;;;;;10.40;4.90;;;;;;;-128.00;-1.00;-1.00;18484;294;7504432;-30
2023/04/04 03:24:57;;;;;;;13.60;3.90;;;;;;;-128.00;-1.00;-1.00;18505;295;7505221;-29
2023/04/04 03:27:23;;;;;;;22.50;6.70;;;;;;;-128.00;-1.00;-1.00;18917;295;7505109;-31
2023/04/04 03:29:50;;;;;;;19.90;7.20;;;;;;;-128.00;-1.00;-1.00;18853;295;7504324;-29
2023/04/04 03:32:17;;;;;;;10.90;5.70;;;;;;;-128.00;-1.00;-1.00;18851;294;7505005;-32
2023/04/04 03:34:43;;;;;;;27.40;5.90;;;;;;;-128.00;-1.00;-1.00;18486;295;7504434;-35
2023/04/04 03:37:09;;;;;;;11.60;6.40;;;;;;;-128.00;-1.00;-1.00;18471;294;7506158;-32
2023/04/04 03:39:35;;;;;;;15.30;6.30;;;;;;;-128.00;-1.00;-1.00;18507;295;7506294;-33
2023/04/04 03:42:00;;;;;;;9.50;6.10;;;;;;;-128.00;-1.00;-1.00;18460;295;7504565;-33
2023/04/04 03:44:27;;;;;;;13.90;4.80;;;;;;;-128.00;-1.00;-1.00;18869;296;7504809;-35
2023/04/04 03:46:53;;;;;;;19.50;6.70;;;;;;;-128.00;-1.00;-1.00;18869;288;7504314;-31
2023/04/04 03:49:19;;;;;;;7.80;4.80;;;;;;;-128.00;-1.00;-1.00;18487;294;7506114;-29
2023/04/04 03:51:47;;;;;;;10.90;5.10;;;;;;;-128.00;-1.00;-1.00;18862;294;7505236;-29
2023/04/04 03:54:13;;;;;;;7.40;3.90;;;;;;;-128.00;-1.00;-1.00;18477;294;7506219;-29
2023/04/04 03:56:38;;;;;;;17.30;6.00;;;;;;;-128.00;-1.00;-1.00;18478;335;7504585;-29
2023/04/04 03:59:05;;;;;;;13.70;4.80;;;;;;;-128.00;-1.00;-1.00;18883;289;7505295;-30
2023/04/04 04:01:31;;;;;;;15.90;6.70;;;;;;;-128.00;-1.00;-1.00;18481;296;7504348;-30
2023/04/04 04:03:57;;;;;;;13.30;4.80;;;;;;;-128.00;-1.00;-1.00;18488;294;7504648;-30
2023/04/04 04:06:22;;;;;;;8.80;5.40;;;;;;;-128.00;-1.00;-1.00;18467;295;7506247;-29
2023/04/04 04:08:48;;;;;;;10.90;6.10;;;;;;;-128.00;-1.00;-1.00;18477;299;7504924;-30
2023/04/04 04:11:13;;;;;;;7.50;4.70;;;;;;;-128.00;-1.00;-1.00;18481;295;7505824;-28
2023/04/04 04:13:40;;;;;;;13.90;6.00;;;;;;;-128.00;-1.00;-1.00;18884;295;7504837;-34
2023/04/04 04:16:06;;;;;;;13.50;5.70;;;;;;;-128.00;-1.00;-1.00;18480;295;7505011;-32
2023/04/04 04:18:32;;;;;;;14.70;5.30;;;;;;;-128.00;-1.00;-1.00;18471;294;7505821;-30
2023/04/04 04:20:58;;;;;;;13.70;6.30;;;;;;;-128.00;-1.00;-1.00;18507;295;7504773;-33
2023/04/04 04:23:24;;;;;;;13.10;6.70;;;;;;;-128.00;-1.00;-1.00;18477;295;7505972;-33
2023/04/04 04:25:50;;;;;;;11.50;4.60;;;;;;;-128.00;-1.00;-1.00;18508;294;7505608;-34
2023/04/04 04:28:16;;;;;;;15.20;6.00;;;;;;;-128.00;-1.00;-1.00;18456;294;7504791;-33
2023/04/04 04:30:43;;;;;;;17.30;6.50;;;;;;;-128.00;-1.00;-1.00;18486;294;7505382;-33
2023/04/04 04:33:09;;;;;;;28.20;10.10;;;;;;;-128.00;-1.00;-1.00;18505;295;7504454;-33
2023/04/04 04:35:38;;;;;;;29.60;10.90;;;;;;;-128.00;-1.00;-1.00;18520;295;7504737;-30
2023/04/04 05:15:10;;;;;;;17.00;6.10;;;;;;;-103.00;18.24;20058.72;98310;286;1546848;-35
2023/04/04 05:17:38;;;;;;;9.40;4.20;;;;;;;-128.00;-1.00;-1.00;97505;295;1003894;-33
2023/04/04 05:20:04;;;;;;;6.40;3.30;;;;;;;-128.00;-1.00;-1.00;97983;293;1003812;-32
2023/04/04 05:22:30;;;;;;;12.90;4.50;;;;;;;-128.00;-1.00;-1.00;98098;293;1002575;-29
2023/04/04 05:24:56;;;;;;;14.60;5.20;;;;;;;-128.00;-1.00;-1.00;97940;293;1004881;-33
2023/04/04 05:27:22;;;;;;;8.60;3.60;;;;;;;-128.00;-1.00;-1.00;98039;293;1003202;-29
2023/04/04 05:29:47;;;;;;;4.70;3.10;;;;;;;-128.00;-1.00;-1.00;98062;293;1004045;-29
2023/04/04 05:32:13;;;;;;;4.00;2.10;;;;;;;-128.00;-1.00;-1.00;98011;292;1003461;-33
2023/04/04 05:34:39;;;;;;;9.00;3.20;;;;;;;-128.00;-1.00;-1.00;98019;293;1002666;-29
2023/04/04 05:37:05;;;;;;;7.50;3.10;;;;;;;-128.00;-1.00;-1.00;98037;293;1003988;-34
2023/04/04 05:39:30;;;;;;;5.90;1.80;;;;;;;-128.00;-1.00;-1.00;97927;293;1003353;-29
2023/04/04 05:41:56;;;;;;;5.10;2.50;;;;;;;-128.00;-1.00;-1.00;98026;293;1003875;-32
2023/04/04 05:44:22;;;;;;;20.40;6.80;;;;;;;-128.00;-1.00;-1.00;97911;293;1004002;-33
2023/04/04 05:46:47;;;;;;;11.30;4.00;;;;;;;-128.00;-1.00;-1.00;98067;293;1003710;-31
2023/04/04 05:49:13;;;;;;;10.60;3.30;;;;;;;-128.00;-1.00;-1.00;98007;293;1003455;-32
2023/04/04 05:51:38;;;;;;;13.70;2.80;;;;;;;-128.00;-1.00;-1.00;97989;293;1003334;-28
2023/04/04 05:54:06;;;;;;;5.30;2.90;;;;;;;-128.00;-1.00;-1.00;98101;293;1003116;-33
2023/04/04 05:56:32;;;;;;;3.50;1.90;;;;;;;-128.00;-1.00;-1.00;98046;293;1002385;-30
2023/04/04 05:58:58;;;;;;;6.70;2.10;;;;;;;-128.00;-1.00;-1.00;98065;293;1003426;-35
2023/04/04 06:01:24;;;;;;;4.20;1.70;;;;;;;-128.00;-1.00;-1.00;98022;293;1002390;-29
2023/04/04 06:03:50;;;;;;;6.60;1.70;;;;;;;-128.00;-1.00;-1.00;97875;293;1003239;-29
2023/04/04 06:06:16;;;;;;;7.20;2.30;;;;;;;-128.00;-1.00;-1.00;98043;293;1003483;-29
2023/04/04 06:08:42;;;;;;;6.60;3.20;;;;;;;-128.00;-1.00;-1.00;98050;293;1003466;-29
2023/04/04 06:11:08;;;;;;;18.90;4.30;;;;;;;-128.00;-1.00;-1.00;98070;293;1004507;-33
2023/04/04 06:13:33;;;;;;;25.40;6.30;;;;;;;-128.00;-1.00;-1.00;97949;293;1003224;-33
2023/04/04 06:16:00;;;;;;;6.40;3.10;;;;;;;-128.00;-1.00;-1.00;97999;281;1003704;-29
2023/04/04 06:18:26;;;;;;;32.80;6.80;;;;;;;-128.00;-1.00;-1.00;98019;293;1003616;-33
2023/04/04 06:20:52;;;;;;;25.10;8.30;;;;;;;-128.00;-1.00;-1.00;98002;293;1003729;-33
2023/04/04 06:23:17;;;;;;;11.90;4.00;;;;;;;-128.00;-1.00;-1.00;97987;293;1003489;-33
2023/04/04 06:25:43;;;;;;;15.40;6.80;;;;;;;-128.00;-1.00;-1.00;98089;293;1003229;-29
2023/04/04 06:28:09;;;;;;;11.10;4.70;;;;;;;-128.00;-1.00;-1.00;98159;293;1003460;-31
2023/04/04 06:30:36;;;;;;;3.30;1.40;;;;;;;-128.00;-1.00;-1.00;98104;293;1003324;-29
2023/04/04 06:33:05;;;;;;;4.20;3.00;;;;;;;-128.00;-1.00;-1.00;98095;293;1003050;-29
2023/04/04 06:35:31;;;;;;;6.40;2.10;;;;;;;-128.00;-1.00;-1.00;98041;293;1005573;-33
2023/04/04 06:37:57;;;;;;;6.20;2.00;;;;;;;-128.00;-1.00;-1.00;98004;293;1004143;-35
2023/04/04 06:40:23;;;;;;;8.10;2.20;;;;;;;-128.00;-1.00;-1.00;97894;293;1002898;-32
2023/04/04 06:42:49;;;;;;;5.20;2.00;;;;;;;-128.00;-1.00;-1.00;98040;294;1002966;-31
2023/04/04 06:45:16;;;;;;;6.30;1.90;;;;;;;-128.00;-1.00;-1.00;98148;293;1003834;-35
2023/04/04 06:47:42;;;;;;;3.40;1.60;;;;;;;-128.00;-1.00;-1.00;97897;293;1003400;-30
2023/04/04 06:50:08;;;;;;;4.60;2.00;;;;;;;-128.00;-1.00;-1.00;97867;294;1003654;-33
2023/04/04 06:52:33;;;;;;;7.90;2.70;;;;;;;-128.00;-1.00;-1.00;97933;294;1005201;-33
2023/04/04 06:54:59;;;;;;;6.80;2.10;;;;;;;-128.00;-1.00;-1.00;98130;282;1005365;-29
2023/04/04 06:57:24;;;;;;;10.10;2.20;;;;;;;-128.00;-1.00;-1.00;98107;293;1003478;-31
2023/04/04 06:59:50;;;;;;;5.40;1.40;;;;;;;-128.00;-1.00;-1.00;98129;293;1003358;-29
2023/04/04 07:02:16;;;;;;;4.20;1.20;;;;;;;-128.00;-1.00;-1.00;98018;293;1003265;-30
2023/04/04 07:04:41;;;;;;;1.20;0.70;;;;;;;-128.00;-1.00;-1.00;98054;293;1002945;-29
2023/04/04 07:07:07;;;;;;;1.40;0.50;;;;;;;-128.00;-1.00;-1.00;98082;293;1003145;-29
2023/04/04 07:09:33;;;;;;;4.60;1.00;;;;;;;-128.00;-1.00;-1.00;98047;293;1003815;-29
2023/04/04 07:11:58;;;;;;;5.60;1.30;;;;;;;-128.00;-1.00;-1.00;97964;293;1003170;-34
2023/04/04 07:14:24;;;;;;;5.20;2.00;;;;;;;-128.00;-1.00;-1.00;98055;293;1002770;-34
2023/04/04 07:16:51;;;;;;;3.90;2.20;;;;;;;-128.00;-1.00;-1.00;98138;293;1002853;-28
2023/04/04 07:19:16;;;;;;;8.80;2.80;;;;;;;-128.00;-1.00;-1.00;98158;293;1004004;-30
2023/04/04 07:21:42;;;;;;;1.40;0.80;;;;;;;-128.00;-1.00;-1.00;97998;293;1004522;-31
2023/04/04 07:24:08;;;;;;;1.30;0.50;;;;;;;-128.00;-1.00;-1.00;97904;293;1002563;-30
2023/04/04 07:26:34;;;;;;;9.50;4.40;;;;;;;-128.00;-1.00;-1.00;97991;293;1003351;-29
2023/04/04 07:29:00;;;;;;;13.80;5.60;;;;;;;-128.00;-1.00;-1.00;97895;294;1003692;-33
2023/04/04 07:31:26;;;;;;;8.60;3.20;;;;;;;-128.00;-1.00;-1.00;97910;293;1004218;-31
2023/04/04 07:33:52;;;;;;;3.60;1.10;;;;;;;-128.00;-1.00;-1.00;98109;293;1002510;-28
2023/04/04 07:36:18;;;;;;;3.90;1.60;;;;;;;-128.00;-1.00;-1.00;98026;293;1003540;-30
2023/04/04 07:38:44;;;;;;;3.30;1.50;;;;;;;-128.00;-1.00;-1.00;98128;293;1003812;-35
2023/04/04 07:41:10;;;;;;;4.90;1.30;;;;;;;-128.00;-1.00;-1.00;97995;293;1003730;-31
2023/04/04 07:43:37;;;;;;;6.90;1.40;;;;;;;-128.00;-1.00;-1.00;97909;294;1003629;-33
2023/04/04 07:46:03;;;;;;;6.60;1.80;;;;;;;-128.00;-1.00;-1.00;97960;293;1003397;-32
2023/04/04 07:48:28;;;;;;;14.90;2.40;;;;;;;-128.00;-1.00;-1.00;98092;293;1003316;-31
2023/04/04 07:50:54;;;;;;;7.10;3.00;;;;;;;-128.00;-1.00;-1.00;98094;293;1003070;-33
2023/04/04 07:53:21;;;;;;;12.30;2.50;;;;;;;-128.00;-1.00;-1.00;98078;293;1003290;-32
2023/04/04 07:55:47;;;;;;;4.20;1.70;;;;;;;-128.00;-1.00;-1.00;97934;294;1002903;-29
2023/04/04 07:58:12;;;;;;;8.70;1.70;;;;;;;-128.00;-1.00;-1.00;97918;293;1003000;-29
2023/04/04 08:00:38;;;;;;;10.20;3.60;;;;;;;-128.00;-1.00;-1.00;97890;293;1003663;-29
2023/04/04 08:03:04;;;;;;;6.30;1.10;;;;;;;-128.00;-1.00;-1.00;97922;293;1003104;-28
2023/04/04 08:05:30;;;;;;;3.70;1.40;;;;;;;-128.00;-1.00;-1.00;97917;293;1003346;-29
2023/04/04 08:07:56;;;;;;;15.10;3.80;;;;;;;-128.00;-1.00;-1.00;97905;293;1003085;-27
2023/04/04 08:10:22;;;;;;;10.20;3.20;;;;;;;-128.00;-1.00;-1.00;97911;293;1003935;-32
2023/04/04 08:12:48;;;;;;;14.60;4.10;;;;;;;-128.00;-1.00;-1.00;97889;293;1003139;-29
2023/04/04 08:15:14;;;;;;;9.50;3.50;;;;;;;-128.00;-1.00;-1.00;97962;293;1003967;-30
2023/04/04 08:17:42;;;;;;;17.30;4.40;;;;;;;-128.00;-1.00;-1.00;97933;293;1004141;-34
2023/04/04 08:20:09;;;;;;;12.90;2.90;;;;;;;-128.00;-1.00;-1.00;97934;293;1004198;-34
2023/04/04 08:22:35;;;;;;;9.00;3.00;;;;;;;-128.00;-1.00;-1.00;98085;293;1003524;-30
2023/04/04 08:25:00;;;;;;;6.20;2.10;;;;;;;-128.00;-1.00;-1.00;98089;293;1003129;-28
2023/04/04 08:27:26;;;;;;;3.70;1.50;;;;;;;-128.00;-1.00;-1.00;97940;293;1004458;-32
2023/04/04 08:29:52;;;;;;;2.20;0.90;;;;;;;-128.00;-1.00;-1.00;97971;293;1003492;-29
2023/04/04 08:32:17;;;;;;;4.50;1.20;;;;;;;-128.00;-1.00;-1.00;97964;295;1004543;-28
2023/04/04 08:34:43;;;;;;;7.30;2.40;;;;;;;-128.00;-1.00;-1.00;97939;293;1002866;-29
2023/04/04 08:37:10;;;;;;;4.80;2.00;;;;;;;-128.00;-1.00;-1.00;97943;293;1003122;-30
2023/04/04 08:39:36;;;;;;;2.60;0.70;;;;;;;-128.00;-1.00;-1.00;97904;294;1003196;-29
2023/04/04 08:42:04;;;;;;;5.10;1.20;;;;;;;-128.00;-1.00;-1.00;98065;293;1005233;-28
2023/04/04 08:44:30;;;;;;;6.70;1.80;;;;;;;-128.00;-1.00;-1.00;98037;293;1002687;-34
2023/04/04 08:46:59;;;;;;;2.60;0.70;;;;;;;-128.00;-1.00;-1.00;97943;293;1002881;-32
2023/04/04 08:49:25;;;;;;;5.00;1.60;;;;;;;-128.00;-1.00;-1.00;97988;293;1003032;-28
2023/04/04 08:51:51;;;;;;;2.10;1.40;;;;;;;-128.00;-1.00;-1.00;97978;293;1002581;-29
2023/04/04 08:54:18;;;;;;;2.30;1.30;;;;;;;-128.00;-1.00;-1.00;98154;293;1002615;-33
2023/04/04 08:56:43;;;;;;;3.00;0.80;;;;;;;-128.00;-1.00;-1.00;97835;293;1003282;-29
2023/04/04 08:59:14;;;;;;;6.50;1.40;;;;;;;-128.00;-1.00;-1.00;97913;293;1004955;-30
2023/04/04 09:01:40;;;;;;;2.50;1.20;;;;;;;-128.00;-1.00;-1.00;97910;293;1003224;-32
2023/04/04 09:04:07;;;;;;;2.10;1.10;;;;;;;-128.00;-1.00;-1.00;97918;293;1004436;-32
2023/04/04 09:06:33;;;;;;;2.40;1.10;;;;;;;-128.00;-1.00;-1.00;97974;294;1003742;-29
2023/04/04 09:08:59;;;;;;;2.10;0.80;;;;;;;-128.00;-1.00;-1.00;97931;293;1003451;-35
2023/04/04 09:11:25;;;;;;;11.00;2.60;;;;;;;-128.00;-1.00;-1.00;97936;293;1005387;-32
2023/04/04 09:13:51;;;;;;;5.10;1.50;;;;;;;-128.00;-1.00;-1.00;97981;293;1003907;-29
2023/04/04 09:16:16;;;;;;;4.40;1.20;;;;;;;-128.00;-1.00;-1.00;97948;293;1003702;-34
2023/04/04 09:18:42;;;;;;;2.50;0.70;;;;;;;-128.00;-1.00;-1.00;98102;293;1002952;-33
2023/04/04 09:21:10;;;;;;;4.10;0.70;;;;;;;-128.00;-1.00;-1.00;97920;281;1005009;-28
2023/04/04 09:23:36;;;;;;;4.80;0.70;;;;;;;-128.00;-1.00;-1.00;97874;294;1003599;-31
2023/04/04 09:26:02;;;;;;;2.90;1.00;;;;;;;-128.00;-1.00;-1.00;98000;282;1003364;-32
2023/04/04 09:28:28;;;;;;;3.30;1.10;;;;;;;-128.00;-1.00;-1.00;98014;293;1005028;-29
2023/04/04 09:30:53;;;;;;;3.70;1.30;;;;;;;-128.00;-1.00;-1.00;97856;293;1004161;-28
2023/04/04 09:33:23;;;;;;;2.20;1.10;;;;;;;-128.00;-1.00;-1.00;97928;293;1002867;-33
2023/04/04 09:35:53;;;;;;;5.00;1.40;;;;;;;-128.00;-1.00;-1.00;97942;293;1003761;-32
2023/04/04 09:38:21;;;;;;;1.40;0.90;;;;;;;-128.00;-1.00;-1.00;97960;293;1002636;-29
2023/04/04 09:40:46;;;;;;;6.80;1.60;;;;;;;-128.00;-1.00;-1.00;98084;293;1004842;-28
2023/04/04 09:43:12;;;;;;;2.90;1.70;;;;;;;-128.00;-1.00;-1.00;98100;293;1003537;-28
2023/04/04 09:45:39;;;;;;;2.10;1.10;;;;;;;-128.00;-1.00;-1.00;98022;293;1003053;-28
2023/04/04 09:48:08;;;;;;;1.80;0.60;;;;;;;-128.00;-1.00;-1.00;98020;293;1004548;-32
2023/04/04 09:50:34;;;;;;;2.40;0.80;;;;;;;-128.00;-1.00;-1.00;98117;293;1003107;-32
2023/04/04 09:52:59;;;;;;;4.70;2.00;;;;;;;-128.00;-1.00;-1.00;98126;293;1003415;-29
2023/04/04 09:55:37;;;;;;;6.70;2.90;;;;;;;-128.00;-1.00;-1.00;97997;293;1003734;-32
2023/04/04 09:58:15;;;;;;;14.20;5.60;;;;;;;-128.00;-1.00;-1.00;97992;293;1003823;-29
2023/04/04 10:00:41;;;;;;;7.20;4.40;;;;;;;-128.00;-1.00;-1.00;98059;293;1003412;-34
2023/04/04 10:03:07;;;;;;;7.60;2.60;;;;;;;-128.00;-1.00;-1.00;98022;293;1004069;-32
2023/04/04 10:05:33;;;;;;;7.00;2.60;;;;;;;-128.00;-1.00;-1.00;97981;282;1003620;-33
2023/04/04 10:08:00;;;;;;;3.60;1.40;;;;;;;-128.00;-1.00;-1.00;98133;293;1004702;-32
2023/04/04 10:10:30;;;;;;;2.10;1.00;;;;;;;-128.00;-1.00;-1.00;97942;293;1004597;-28
2023/04/04 10:12:57;;;;;;;2.40;1.00;;;;;;;-128.00;-1.00;-1.00;97996;293;1003361;-32
2023/04/04 10:15:23;;;;;;;2.90;1.10;;;;;;;-128.00;-1.00;-1.00;98041;293;1005005;-31
2023/04/04 10:17:53;;;;;;;2.30;1.10;;;;;;;-128.00;-1.00;-1.00;97927;293;1003301;-34
2023/04/04 10:20:18;;;;;;;2.20;1.30;;;;;;;-128.00;-1.00;-1.00;97944;294;1003207;-29
2023/04/04 10:22:44;;;;;;;1.10;0.60;;;;;;;-128.00;-1.00;-1.00;98069;293;1003979;-32
2023/04/04 10:25:10;;;;;;;3.20;1.40;;;;;;;-128.00;-1.00;-1.00;98099;293;1003700;-32
2023/04/04 10:27:37;;;;;;;3.10;0.80;;;;;;;-128.00;-1.00;-1.00;97825;294;1003882;-32
2023/04/04 10:30:03;;;;;;;2.80;1.20;;;;;;;-128.00;-1.00;-1.00;97864;294;1003228;-31
2023/04/04 10:32:43;;;;;;;4.10;1.30;;;;;;;-128.00;-1.00;-1.00;98021;293;1003985;-33
2023/04/04 10:35:10;;;;;;;2.40;1.20;;;;;;;-128.00;-1.00;-1.00;98191;281;1004137;-30
2023/04/04 10:37:44;;;;;;;2.40;0.90;;;;;;;-128.00;-1.00;-1.00;98020;293;1003212;-30
2023/04/04 10:40:15;;;;;;;3.10;1.20;;;;;;;-128.00;-1.00;-1.00;98034;293;1004297;-29
2023/04/04 10:42:43;;;;;;;5.30;1.00;;;;;;;-128.00;-1.00;-1.00;98188;293;1004715;-29
2023/04/04 10:45:09;;;;;;;3.10;1.30;;;;;;;-128.00;-1.00;-1.00;98087;293;1003152;-29
2023/04/04 10:47:36;;;;;;;2.90;0.90;;;;;;;-128.00;-1.00;-1.00;98024;293;1003569;-34
2023/04/04 10:50:03;;;;;;;6.60;1.90;;;;;;;-128.00;-1.00;-1.00;98124;293;1003472;-32
2023/04/04 10:52:29;;;;;;;12.10;2.30;;;;;;;-128.00;-1.00;-1.00;98038;293;1003050;-32
2023/04/04 10:54:59;;;;;;;3.70;1.90;;;;;;;-128.00;-1.00;-1.00;97873;294;1004884;-37
2023/04/04 10:57:25;;;;;;;4.60;0.90;;;;;;;-128.00;-1.00;-1.00;98006;293;1004948;-32
2023/04/04 11:00:09;;;;;;;2.70;1.10;;;;;;;-128.00;-1.00;-1.00;98005;293;1002642;-29
2023/04/04 11:02:55;;;;;;;2.80;1.20;;;;;;;-128.00;-1.00;-1.00;97923;294;1003106;-33
2023/04/04 11:44:40;;;;;;;3.90;1.50;;;;;;;1.88;49.14;100227.52;100837;297;559744;-33
2023/04/04 11:47:09;;;;;;;3.20;1.60;;;;;;;2.17;47.53;100220.14;100549;296;556275;-37
2023/04/04 11:49:36;;;;;;;4.20;1.30;;;;;;;2.15;47.55;100224.04;101223;296;22574;-32
2023/04/04 11:52:07;;;;;;;2.10;1.60;;;;;;;1.92;48.10;100226.73;101397;296;22991;-28
2023/04/04 11:54:34;;;;;;;5.00;1.80;;;;;;;1.92;48.52;100227.07;101381;296;22577;-33
2023/04/04 11:57:00;;;;;;;5.20;1.90;;;;;;;2.11;49.52;100225.58;101278;296;22882;-29
2023/04/04 11:59:26;;;;;;;5.40;2.20;;;;;;;2.23;49.41;100224.98;101324;296;25309;-29
2023/04/04 12:01:53;;;;;;;15.40;5.50;;;;;;;2.27;49.21;100220.59;101395;296;24240;-29
2023/04/04 12:04:18;;;;;;;4.60;2.80;;;;;;;2.23;49.22;100220.48;101346;296;22580;-31
2023/04/04 12:06:50;;;;;;;11.70;4.90;;;;;;;2.12;49.12;100217.41;101293;296;22593;-30
2023/04/04 12:09:17;;;;;;;4.80;2.50;;;;;;;1.99;49.53;100220.88;101348;296;24067;-28
2023/04/04 12:11:46;;;;;;;6.00;2.20;;;;;;;1.82;49.48;100220.05;101263;296;24180;-32
2023/04/04 12:14:19;;;;;;;11.40;2.60;;;;;;;-128.00;-1.00;-1.00;97849;296;1002952;-32
2023/04/04 12:16:50;;;;;;;3.40;2.50;;;;;;;-128.00;-1.00;-1.00;97760;296;1003050;-29
2023/04/04 12:19:17;;;;;;;3.40;1.60;;;;;;;-128.00;-1.00;-1.00;97916;296;1002624;-35
2023/04/04 12:21:43;;;;;;;2.50;1.70;;;;;;;-128.00;-1.00;-1.00;97898;296;1002795;-28
2023/04/04 12:24:09;;;;;;;4.50;1.90;;;;;;;-128.00;-1.00;-1.00;97789;284;1003038;-30
2023/04/04 12:26:39;;;;;;;2.70;2.10;;;;;;;-128.00;-1.00;-1.00;97923;296;1003086;-32
2023/04/04 12:29:06;;;;;;;5.10;1.50;;;;;;;-128.00;-1.00;-1.00;97790;296;1003713;-33
2023/04/04 12:31:32;;;;;;;4.90;2.10;;;;;;;-128.00;-1.00;-1.00;97825;296;1003789;-32
2023/04/04 12:33:59;;;;;;;8.50;1.70;;;;;;;-128.00;-1.00;-1.00;97806;296;1002961;-29
2023/04/04 12:36:25;;;;;;;3.60;1.80;;;;;;;-128.00;-1.00;-1.00;97789;297;1002649;-29
2023/04/04 12:39:07;;;;;;;15.50;2.30;;;;;;;-128.00;-1.00;-1.00;97916;288;1002973;-31
2023/04/04 12:41:32;;;;;;;3.10;1.90;;;;;;;-128.00;-1.00;-1.00;97910;296;1002999;-33
2023/04/04 12:44:02;;;;;;;3.10;1.60;;;;;;;-128.00;-1.00;-1.00;97761;296;1003408;-29